Time;durP1;ratioP1;P1;durP2;ratioP2;P2;SDS_P1;SDS_P2;PMS_P1;PMS_P2;Temp;Humidity;BMP_temperature;BMP_pressure;BME280_temperature;BME280_humidity;BME280_pressure;Samples;Min_cycle;Max_cycle;Signal;HPM_P1;HPM_P2
2022/07/11 00:00:09;;;;;;;3.38;1.30;;;;;;;18.04;100.00;102380.41;2615020;31;20053;-59
2022/07/11 00:02:38;;;;;;;4.75;1.30;;;;;;;17.90;100.00;102384.44;2615008;36;20081;-56
2022/07/11 00:05:08;;;;;;;4.53;1.20;;;;;;;17.90;100.00;102384.44;2615738;36;20461;-57
2022/07/11 00:07:40;;;;;;;1.80;1.08;;;;;;;17.91;100.00;102385.31;2615034;36;20030;-59
2022/07/11 00:10:09;;;;;;;3.53;1.27;;;;;;;17.82;100.00;102387.03;2615200;36;20045;-56
2022/07/11 00:12:38;;;;;;;3.05;1.20;;;;;;;17.83;100.00;102388.75;2614926;36;20564;-58
2022/07/11 00:15:07;;;;;;;2.80;1.20;;;;;;;17.90;100.00;102389.88;2614738;36;20030;-57
2022/07/11 00:17:35;;;;;;;2.38;1.30;;;;;;;18.08;100.00;102389.13;2615219;36;20038;-54
2022/07/11 00:20:03;;;;;;;4.77;1.10;;;;;;;18.03;100.00;102384.13;2615105;36;20063;-55
2022/07/11 00:22:32;;;;;;;5.63;1.10;;;;;;;18.09;100.00;102382.69;2614745;36;20035;-59
2022/07/11 00:25:02;;;;;;;3.05;1.40;;;;;;;18.06;100.00;102386.53;2615229;36;20684;-57
2022/07/11 00:27:34;;;;;;;3.75;1.30;;;;;;;17.78;100.00;102389.16;2616658;36;20460;-53
2022/07/11 00:30:02;;;;;;;2.55;1.13;;;;;;;17.84;100.00;102377.72;2615747;36;20432;-57
2022/07/11 00:32:31;;;;;;;2.37;1.57;;;;;;;17.69;100.00;102376.44;2614869;36;20061;-58
2022/07/11 00:34:59;;;;;;;4.03;1.57;;;;;;;17.71;100.00;102379.88;2615214;36;20334;-54
2022/07/11 00:37:27;;;;;;;7.57;1.90;;;;;;;17.82;100.00;102376.97;2615424;36;20466;-57
2022/07/11 00:39:59;;;;;;;6.70;1.30;;;;;;;17.74;100.00;102374.16;2614386;36;20310;-58
2022/07/11 00:42:29;;;;;;;5.18;1.65;;;;;;;17.63;100.00;102377.03;2614816;36;20034;-56
2022/07/11 00:44:58;;;;;;;4.28;1.55;;;;;;;17.47;100.00;102378.44;2615300;36;20487;-58
2022/07/11 00:47:26;;;;;;;6.20;1.60;;;;;;;17.68;100.00;102380.16;2615065;36;20575;-56
2022/07/11 00:49:55;;;;;;;5.70;1.50;;;;;;;17.49;100.00;102381.03;2614916;36;20330;-56
2022/07/11 00:52:23;;;;;;;3.78;1.60;;;;;;;17.64;100.00;102379.59;2614574;36;22744;-56
2022/07/11 00:54:52;;;;;;;3.78;1.50;;;;;;;17.69;100.00;102382.72;2615137;36;20070;-56
2022/07/11 00:57:20;;;;;;;3.35;1.40;;;;;;;17.63;100.00;102382.47;2614689;36;20034;-57
2022/07/11 00:59:51;;;;;;;3.72;1.70;;;;;;;17.70;100.00;102383.59;2615056;31;20034;-59
2022/07/11 01:02:20;;;;;;;3.25;1.55;;;;;;;17.73;100.00;102380.59;2614942;36;20031;-59
2022/07/11 01:04:48;;;;;;;4.32;1.60;;;;;;;17.77;100.00;102379.28;2614595;36;20039;-56
2022/07/11 01:07:16;;;;;;;5.90;1.50;;;;;;;17.59;100.00;102370.16;2594988;36;20077;-59
2022/07/11 01:09:45;;;;;;;3.35;1.80;;;;;;;17.59;100.00;102370.16;2614168;36;20299;-58
2022/07/11 01:12:13;;;;;;;3.90;1.70;;;;;;;17.56;100.00;102370.44;2615536;31;20073;-57
2022/07/11 01:14:41;;;;;;;6.17;1.47;;;;;;;17.46;100.00;102365.88;2614784;36;20275;-58
2022/07/11 01:17:12;;;;;;;4.25;1.50;;;;;;;17.54;100.00;102362.41;2614734;31;20030;-58
2022/07/11 01:19:40;;;;;;;3.17;1.70;;;;;;;17.49;100.00;102368.31;2614028;36;20642;-58
2022/07/11 01:22:10;;;;;;;5.13;2.27;;;;;;;17.23;100.00;102370.75;2614584;36;20057;-57
2022/07/11 01:24:41;;;;;;;3.35;1.90;;;;;;;17.30;100.00;102371.03;2614256;36;20042;-54
2022/07/11 01:27:10;;;;;;;4.78;1.70;;;;;;;17.37;100.00;102377.59;2614621;36;20042;-57
2022/07/11 01:29:38;;;;;;;2.05;1.50;;;;;;;17.49;100.00;102370.16;2615064;36;20603;-56
2022/07/11 01:32:07;;;;;;;5.13;1.40;;;;;;;17.54;100.00;102361.56;2614816;31;20570;-59
2022/07/11 01:34:38;;;;;;;1.88;1.50;;;;;;;17.39;100.00;102369.28;2614461;36;20031;-57
2022/07/11 01:37:07;;;;;;;5.85;2.45;;;;;;;17.44;100.00;102370.56;2614721;36;20539;-58
2022/07/11 01:39:35;;;;;;;4.78;1.58;;;;;;;17.42;100.00;102367.16;2614487;36;20044;-59
2022/07/11 01:42:07;;;;;;;2.60;1.53;;;;;;;17.41;100.00;102372.75;2614783;36;20037;-58
2022/07/11 01:44:35;;;;;;;3.17;1.60;;;;;;;17.45;100.00;102361.41;2614936;36;20315;-55
2022/07/11 01:47:03;;;;;;;3.90;1.70;;;;;;;17.55;100.00;102366.00;2614814;36;20057;-57
2022/07/11 01:49:32;;;;;;;3.73;1.43;;;;;;;17.47;100.00;102372.16;2614301;36;20299;-57
2022/07/11 01:52:00;;;;;;;3.07;1.70;;;;;;;17.42;100.00;102374.47;2614909;36;20295;-57
2022/07/11 01:54:28;;;;;;;2.10;1.50;;;;;;;17.39;100.00;102372.00;2614772;36;20042;-57
2022/07/11 01:56:57;;;;;;;2.67;1.60;;;;;;;17.35;100.00;102374.19;2614473;36;20081;-55
2022/07/11 01:59:27;;;;;;;5.10;1.70;;;;;;;17.46;100.00;102375.88;2614736;31;20034;-58
2022/07/11 02:01:56;;;;;;;4.65;2.53;;;;;;;17.32;100.00;102377.19;2614955;36;21026;-57
2022/07/11 02:04:24;;;;;;;2.90;1.83;;;;;;;17.41;100.00;102376.31;2614310;31;20081;-51
2022/07/11 02:06:52;;;;;;;2.67;1.77;;;;;;;17.40;100.00;102379.19;2614754;36;20034;-58
2022/07/11 02:09:21;;;;;;;4.33;1.70;;;;;;;17.47;100.00;102374.88;2614452;36;20027;-55
2022/07/11 02:11:49;;;;;;;2.73;1.80;;;;;;;17.29;100.00;102375.59;2615490;36;20034;-60
2022/07/11 02:14:17;;;;;;;6.30;1.93;;;;;;;17.25;100.00;102378.75;2614921;36;20307;-58
2022/07/11 02:16:48;;;;;;;3.00;1.98;;;;;;;17.30;100.00;102381.94;2615888;36;20038;-52
2022/07/11 02:19:16;;;;;;;2.65;1.60;;;;;;;17.25;100.00;102384.19;2615657;36;20057;-57
2022/07/11 02:21:45;;;;;;;3.38;1.65;;;;;;;17.25;100.00;102378.75;2615707;36;20556;-57
2022/07/11 02:24:13;;;;;;;5.20;2.00;;;;;;;17.19;100.00;102384.78;2614320;31;20041;-57
2022/07/11 02:26:41;;;;;;;4.13;1.67;;;;;;;17.20;100.00;102373.75;2615451;36;20272;-57
2022/07/11 02:29:10;;;;;;;4.23;1.70;;;;;;;17.17;100.00;102372.16;2615643;36;20061;-57
2022/07/11 02:31:38;;;;;;;2.97;1.80;;;;;;;17.21;100.00;102372.75;2615981;36;20447;-60
2022/07/11 02:34:09;;;;;;;2.33;1.80;;;;;;;17.27;100.00;102371.31;2615838;36;20448;-58
2022/07/11 02:36:38;;;;;;;7.15;1.80;;;;;;;17.30;100.00;102376.47;2615547;36;20038;-52
2022/07/11 02:39:06;;;;;;;3.43;1.37;;;;;;;17.26;100.00;102369.59;2615389;36;20038;-57
2022/07/11 02:41:34;;;;;;;8.30;1.92;;;;;;;17.34;100.00;102372.44;2616548;31;20065;-58
2022/07/11 02:44:02;;;;;;;3.33;1.60;;;;;;;17.39;100.00;102370.16;2615615;36;20031;-57
2022/07/11 02:46:31;;;;;;;8.23;2.10;;;;;;;17.32;100.00;102374.47;2615131;36;20275;-55
2022/07/11 02:48:59;;;;;;;3.30;1.88;;;;;;;17.27;100.00;102376.75;2614913;36;20046;-57
2022/07/11 02:51:30;;;;;;;3.23;1.67;;;;;;;17.25;100.00;102373.31;2615680;36;20035;-55
2022/07/11 02:53:58;;;;;;;3.10;1.70;;;;;;;17.13;100.00;102364.44;2614706;36;20563;-56
2022/07/11 02:56:27;;;;;;;2.63;1.60;;;;;;;17.18;100.00;102373.00;2614930;36;20045;-57
2022/07/11 02:58:55;;;;;;;2.65;1.70;;;;;;;17.17;100.00;102374.03;2615506;36;20153;-58
2022/07/11 03:01:24;;;;;;;1.80;1.53;;;;;;;17.16;100.00;102372.31;2615961;31;20074;-58
2022/07/11 03:03:52;;;;;;;4.60;1.80;;;;;;;17.16;100.00;102375.88;2614998;36;20037;-58
2022/07/11 03:06:20;;;;;;;4.13;2.27;;;;;;;17.24;100.00;102377.03;2615318;31;20039;-57
2022/07/11 03:08:51;;;;;;;3.47;2.23;;;;;;;17.27;100.00;102376.75;2614082;36;20566;-58
2022/07/11 03:11:19;;;;;;;2.33;1.83;;;;;;;17.22;100.00;102379.06;2609475;36;20030;-57
2022/07/11 03:13:48;;;;;;;5.00;2.25;;;;;;;17.15;100.00;102382.34;2615600;36;20038;-58
2022/07/11 03:16:16;;;;;;;5.73;2.17;;;;;;;17.18;100.00;102375.72;2615173;36;20030;-53
2022/07/11 03:18:44;;;;;;;6.30;2.00;;;;;;;17.13;100.00;102381.59;2614650;36;20061;-54
2022/07/11 03:21:12;;;;;;;2.75;2.35;;;;;;;17.27;100.00;102382.19;2616196;36;20064;-59
2022/07/11 03:23:41;;;;;;;2.83;2.13;;;;;;;17.13;100.00;102389.78;2614809;36;20472;-61
2022/07/11 03:26:11;;;;;;;4.03;2.23;;;;;;;17.21;100.00;102386.38;2614569;36;20035;-57
2022/07/11 03:28:40;;;;;;;2.83;1.90;;;;;;;17.18;100.00;102383.91;2615269;36;20064;-62
2022/07/11 03:31:08;;;;;;;5.45;2.33;;;;;;;17.20;100.00;102384.63;2615421;36;20788;-58
2022/07/11 03:33:36;;;;;;;3.73;2.30;;;;;;;17.17;100.00;102380.34;2615432;36;20042;-56
2022/07/11 03:36:05;;;;;;;5.43;2.20;;;;;;;17.25;100.00;102379.59;2615176;36;20053;-57
2022/07/11 03:38:33;;;;;;;4.38;2.40;;;;;;;17.22;100.00;102392.66;2614453;36;20070;-59
2022/07/11 03:41:02;;;;;;;4.25;1.92;;;;;;;17.07;100.00;102387.63;2615113;36;20041;-57
2022/07/11 03:43:33;;;;;;;8.07;2.50;;;;;;;16.97;100.00;102384.91;2615562;36;20042;-64
2022/07/11 03:46:01;;;;;;;5.35;2.28;;;;;;;17.06;100.00;102388.63;2615629;36;20086;-60
2022/07/11 03:48:29;;;;;;;3.80;2.47;;;;;;;17.10;100.00;102386.50;2615378;36;20045;-64
2022/07/11 03:50:57;;;;;;;6.30;2.77;;;;;;;17.13;100.00;102387.06;2615320;36;20287;-63
2022/07/11 03:53:26;;;;;;;4.72;2.60;;;;;;;17.07;100.00;102386.78;2615203;36;20474;-59
2022/07/11 03:55:54;;;;;;;2.95;2.28;;;;;;;17.09;100.00;102395.63;2614964;36;20158;-59
2022/07/11 03:58:23;;;;;;;4.37;2.20;;;;;;;17.06;100.00;102383.16;2614594;36;20030;-59
2022/07/11 04:00:54;;;;;;;6.38;2.78;;;;;;;17.14;100.00;102387.94;2614682;36;20105;-59
2022/07/11 04:03:24;;;;;;;2.97;2.13;;;;;;;17.01;100.00;102393.63;2615330;36;20035;-57
2022/07/11 04:05:52;;;;;;;4.32;2.92;;;;;;;16.88;100.00;102393.03;2615380;36;20555;-58
2022/07/11 04:08:21;;;;;;;4.93;2.87;;;;;;;16.79;100.00;102394.72;2614815;36;20085;-59
2022/07/11 04:10:49;;;;;;;5.38;2.45;;;;;;;16.81;100.00;102392.69;2614750;36;20038;-59
2022/07/11 04:13:17;;;;;;;3.37;2.83;;;;;;;16.98;100.00;102393.91;2614728;36;20042;-58
2022/07/11 04:15:45;;;;;;;3.30;2.80;;;;;;;16.98;100.00;102394.78;2615293;36;20031;-59
2022/07/11 04:18:17;;;;;;;4.20;2.20;;;;;;;16.91;100.00;102395.47;2615136;36;20065;-60
2022/07/11 04:20:45;;;;;;;3.15;2.00;;;;;;;16.90;100.00;102391.91;2615080;36;20034;-57
2022/07/11 04:23:13;;;;;;;4.10;2.27;;;;;;;16.87;100.00;102392.19;2615538;36;20602;-58
2022/07/11 04:25:41;;;;;;;2.73;2.07;;;;;;;16.89;100.00;102400.22;2615213;36;20030;-60
2022/07/11 04:28:10;;;;;;;3.87;2.07;;;;;;;16.94;100.00;102395.19;2615448;31;20057;-59
2022/07/11 04:30:38;;;;;;;6.10;2.10;;;;;;;16.73;100.00;102401.56;2614804;36;20050;-61
2022/07/11 04:33:06;;;;;;;4.45;2.30;;;;;;;16.86;100.00;102392.28;2614756;36;20308;-59
2022/07/11 04:35:37;;;;;;;2.80;1.95;;;;;;;16.95;100.00;102400.50;2615129;36;20065;-59
2022/07/11 04:38:06;;;;;;;3.95;2.10;;;;;;;16.90;100.00;102396.47;2615275;36;20431;-60
2022/07/11 04:40:34;;;;;;;4.00;2.43;;;;;;;16.93;100.00;102391.63;2614446;36;20034;-59
2022/07/11 04:43:02;;;;;;;6.35;2.20;;;;;;;16.95;100.00;102396.94;2615137;36;20292;-58
2022/07/11 04:45:30;;;;;;;2.20;2.00;;;;;;;16.94;100.00;102398.75;2614731;36;20042;-60
2022/07/11 04:48:00;;;;;;;3.63;1.88;;;;;;;16.92;100.00;102400.78;2615273;36;20512;-57
2022/07/11 04:50:28;;;;;;;3.63;2.28;;;;;;;17.01;100.00;102407.25;2614918;36;20034;-57
2022/07/11 04:52:59;;;;;;;5.17;2.00;;;;;;;17.13;100.00;102410.69;2614797;31;20061;-55
2022/07/11 04:55:28;;;;;;;4.07;1.85;;;;;;;16.84;100.00;102416.88;2614814;36;20677;-57
2022/07/11 04:57:56;;;;;;;3.65;2.08;;;;;;;16.88;100.00;102420.25;2615448;36;20038;-54
2022/07/11 05:00:24;;;;;;;5.33;1.90;;;;;;;16.80;100.00;102413.59;2615050;36;20865;-54
2022/07/11 05:02:52;;;;;;;4.73;1.53;;;;;;;16.93;100.00;102409.78;2615626;36;20673;-55
2022/07/11 05:05:23;;;;;;;2.10;1.20;;;;;;;17.08;100.00;102421.16;2615310;31;20729;-55
2022/07/11 05:07:52;;;;;;;2.20;1.30;;;;;;;16.85;100.00;102421.34;2614495;36;20039;-55
2022/07/11 05:10:23;;;;;;;1.75;1.08;;;;;;;16.96;100.00;102412.22;2614024;36;20031;-54
2022/07/11 05:12:51;;;;;;;2.78;1.10;;;;;;;17.00;100.00;102413.66;2615131;36;20072;-54
2022/07/11 05:15:19;;;;;;;1.20;0.83;;;;;;;16.98;100.00;102421.13;2615074;36;20030;-55
2022/07/11 05:17:47;;;;;;;1.70;0.87;;;;;;;16.79;100.00;102420.03;2615142;36;20295;-54
2022/07/11 05:20:16;;;;;;;1.60;0.90;;;;;;;16.85;100.00;102426.78;2615081;36;20039;-54
2022/07/11 05:22:44;;;;;;;1.50;1.00;;;;;;;16.93;100.00;102426.97;2613546;36;20031;-56
2022/07/11 05:25:12;;;;;;;1.70;1.20;;;;;;;16.87;100.00;102429.34;2609046;31;20494;-55
2022/07/11 05:27:43;;;;;;;3.67;1.53;;;;;;;16.98;100.00;102429.28;2615063;36;20034;-56
2022/07/11 05:30:13;;;;;;;2.75;0.90;;;;;;;17.21;100.00;102427.19;2615304;31;20400;-57
2022/07/11 05:32:41;;;;;;;2.88;1.23;;;;;;;17.22;100.00;102431.59;2630797;36;20034;-59
2022/07/11 05:35:11;;;;;;;2.15;1.00;;;;;;;17.23;100.00;102436.03;2614456;36;20034;-59
2022/07/11 05:37:39;;;;;;;3.30;1.20;;;;;;;17.30;100.00;102434.47;2615617;31;20493;-60
2022/07/11 05:40:09;;;;;;;3.00;1.37;;;;;;;17.25;100.00;102438.63;2614834;36;20038;-60
2022/07/11 05:42:37;;;;;;;1.65;1.00;;;;;;;17.06;100.00;102448.47;2615357;36;20339;-59
2022/07/11 05:45:09;;;;;;;1.67;1.02;;;;;;;16.97;100.00;102447.47;2614641;36;20066;-60
2022/07/11 05:47:38;;;;;;;1.83;0.90;;;;;;;17.13;100.00;102436.03;2614788;36;20069;-59
2022/07/11 05:50:07;;;;;;;3.10;1.27;;;;;;;17.42;100.00;102440.66;2614471;36;20416;-59
2022/07/11 05:52:35;;;;;;;1.75;1.00;;;;;;;17.44;100.00;102444.06;2614769;36;20041;-59
2022/07/11 05:55:04;;;;;;;3.20;0.90;;;;;;;17.67;100.00;102438.34;2614381;36;20031;-58
2022/07/11 05:57:32;;;;;;;1.33;0.87;;;;;;;17.37;100.00;102432.03;2615033;36;20038;-59
2022/07/11 06:00:00;;;;;;;1.58;0.77;;;;;;;17.81;100.00;102442.50;2614607;36;20334;-58
2022/07/11 06:02:31;;;;;;;2.97;1.13;;;;;;;18.00;100.00;102436.19;2614681;36;20034;-61
2022/07/11 06:05:00;;;;;;;1.10;0.70;;;;;;;18.21;100.00;102442.31;2614962;36;20043;-60
2022/07/11 06:10:14;;;;;;;2.05;0.75;;;;;;;18.35;100.00;102440.09;2613360;36;20039;-61
2022/07/11 06:12:43;;;;;;;2.53;0.70;;;;;;;18.11;100.00;102440.59;2614727;36;20037;-63
2022/07/11 06:15:12;;;;;;;0.85;0.65;;;;;;;18.27;100.00;102434.53;2614899;36;20129;-58
2022/07/11 06:17:45;;;;;;;1.30;0.85;;;;;;;18.28;100.00;102425.34;2614142;36;20059;-64
2022/07/11 06:20:13;;;;;;;2.30;0.82;;;;;;;18.33;100.00;102439.38;2614027;36;20038;-61
2022/07/11 06:22:41;;;;;;;1.73;0.90;;;;;;;18.26;100.00;102433.69;2613378;36;20030;-60
2022/07/11 06:25:11;;;;;;;1.38;0.88;;;;;;;18.19;100.00;102433.41;2614592;36;20035;-60
2022/07/11 06:27:39;;;;;;;1.67;0.82;;;;;;;17.86;100.00;102432.88;2615290;36;20417;-62
2022/07/11 06:30:09;;;;;;;1.65;1.10;;;;;;;18.27;100.00;102435.41;2614161;36;20037;-62
2022/07/11 06:32:37;;;;;;;0.98;0.80;;;;;;;18.49;100.00;102442.34;2614596;36;20037;-61
2022/07/11 06:35:09;;;;;;;0.85;0.60;;;;;;;18.72;100.00;102441.97;2614841;31;20398;-64
2022/07/11 06:37:37;;;;;;;1.35;0.77;;;;;;;18.64;100.00;102431.81;2614580;36;20059;-59
2022/07/11 06:40:09;;;;;;;1.25;0.80;;;;;;;19.09;100.00;102432.88;2614068;36;20031;-61
2022/07/11 06:42:38;;;;;;;0.93;0.75;;;;;;;19.41;100.00;102423.28;2594669;36;20142;-60
2022/07/11 06:45:07;;;;;;;54.15;10.25;;;;;;;19.12;100.00;102415.34;2605191;36;20057;-58
2022/07/11 06:47:36;;;;;;;11.80;2.53;;;;;;;19.29;100.00;102413.59;2613381;31;20041;-62
2022/07/11 06:50:04;;;;;;;3.05;1.40;;;;;;;19.25;100.00;102411.19;2613586;36;20034;-60
2022/07/11 06:52:35;;;;;;;1.65;0.80;;;;;;;18.98;100.00;102406.66;2612958;36;20063;-59
2022/07/11 06:55:04;;;;;;;2.97;1.33;;;;;;;18.82;100.00;102414.63;2614493;36;20080;-61
2022/07/11 06:57:32;;;;;;;24.13;5.13;;;;;;;18.81;100.00;102416.50;2614286;36;20042;-59
2022/07/11 07:00:01;;;;;;;7.30;1.90;;;;;;;18.96;100.00;102429.66;2615023;36;20132;-60
2022/07/11 07:02:30;;;;;;;2.33;0.80;;;;;;;18.94;100.00;102420.78;2615312;36;20034;-61
2022/07/11 07:04:58;;;;;;;0.75;0.50;;;;;;;18.86;100.00;102432.44;2614505;36;20142;-61
2022/07/11 07:07:27;;;;;;;0.98;0.65;;;;;;;18.95;100.00;102434.25;2614015;36;20034;-61
2022/07/11 07:09:58;;;;;;;0.80;0.57;;;;;;;18.37;100.00;102427.19;2614672;36;20058;-60
2022/07/11 07:12:27;;;;;;;0.93;0.65;;;;;;;18.63;100.00;102426.50;2613812;36;20134;-61
2022/07/11 07:14:55;;;;;;;0.85;0.55;;;;;;;18.84;100.00;102420.78;2614023;36;20065;-61
2022/07/11 07:17:23;;;;;;;1.63;0.40;;;;;;;18.28;100.00;102425.34;2614790;36;20085;-60
2022/07/11 07:19:52;;;;;;;1.30;0.70;;;;;;;18.63;100.00;102430.09;2614868;31;20065;-61
2022/07/11 07:22:20;;;;;;;0.83;0.40;;;;;;;18.95;100.00;102436.09;2614149;36;20039;-62
2022/07/11 07:24:48;;;;;;;0.57;0.50;;;;;;;18.97;100.00;102436.84;2614086;36;20324;-61
2022/07/11 07:27:19;;;;;;;0.30;0.30;;;;;;;18.90;100.00;102434.72;2614885;36;20327;-60
2022/07/11 07:29:48;;;;;;;1.52;0.30;;;;;;;18.98;100.00;102436.69;2615432;36;20673;-60
2022/07/11 07:32:16;;;;;;;0.40;0.40;;;;;;;19.44;100.00;102431.19;2615597;36;20423;-62
2022/07/11 07:34:44;;;;;;;0.43;0.40;;;;;;;19.26;100.00;102434.75;2614894;36;20510;-63
2022/07/11 07:37:14;;;;;;;0.52;0.45;;;;;;;19.52;100.00;102434.00;2615011;31;20031;-62
2022/07/11 07:39:42;;;;;;;1.45;0.45;;;;;;;19.57;100.00;102428.91;2615424;36;20038;-63
2022/07/11 07:42:10;;;;;;;0.65;0.35;;;;;;;19.63;100.00;102443.81;2614655;36;20578;-60
2022/07/11 07:44:41;;;;;;;1.17;0.40;;;;;;;19.69;100.00;102442.31;2608631;36;20118;-61
2022/07/11 07:47:10;;;;;;;0.60;0.50;;;;;;;19.78;100.00;102446.88;2607390;36;20030;-62
2022/07/11 07:49:38;;;;;;;0.55;0.40;;;;;;;19.69;100.00;102447.78;2615544;31;20030;-63
2022/07/11 07:52:06;;;;;;;0.57;0.52;;;;;;;19.14;100.00;102449.66;2614919;36;20065;-61
2022/07/11 07:54:35;;;;;;;1.10;0.52;;;;;;;19.03;100.00;102447.13;2615519;31;20030;-62
2022/07/11 07:57:03;;;;;;;1.45;0.60;;;;;;;19.17;100.00;102449.34;2615004;36;20034;-62
2022/07/11 07:59:31;;;;;;;0.43;0.43;;;;;;;19.05;100.00;102456.00;2614795;36;20034;-60
2022/07/11 08:01:59;;;;;;;0.88;0.40;;;;;;;19.04;100.00;102454.31;2614769;36;20535;-62
2022/07/11 08:04:29;;;;;;;2.10;0.70;;;;;;;19.18;100.00;102451.03;2613954;36;20057;-59
2022/07/11 08:06:59;;;;;;;0.65;0.40;;;;;;;19.25;100.00;102452.13;2613579;36;20714;-62
2022/07/11 08:09:28;;;;;;;0.73;0.55;;;;;;;19.12;100.00;102451.66;2613689;36;20041;-60
2022/07/11 08:11:56;;;;;;;1.17;0.57;;;;;;;19.01;100.00;102449.16;2613821;36;20038;-60
2022/07/11 08:14:25;;;;;;;0.40;0.40;;;;;;;18.85;100.00;102456.09;2615076;36;20057;-62
2022/07/11 08:16:53;;;;;;;0.93;0.50;;;;;;;19.17;100.00;102453.91;2614657;36;20153;-62
2022/07/11 08:19:24;;;;;;;0.47;0.47;;;;;;;19.31;100.00;102449.81;2613327;36;20035;-63
2022/07/11 08:21:52;;;;;;;1.02;0.50;;;;;;;19.29;100.00;102451.81;2615241;31;20307;-62
2022/07/11 08:24:21;;;;;;;0.52;0.40;;;;;;;18.86;100.00;102457.84;2614534;36;20026;-61
2022/07/11 08:26:49;;;;;;;0.80;0.57;;;;;;;18.99;100.00;102453.91;2614428;36;20058;-61
2022/07/11 08:29:17;;;;;;;0.80;0.60;;;;;;;18.60;100.00;102456.81;2615096;36;20661;-61
2022/07/11 08:31:45;;;;;;;2.92;0.80;;;;;;;18.84;100.00;102446.19;2613998;31;20061;-61
2022/07/11 08:34:14;;;;;;;1.13;0.60;;;;;;;18.98;100.00;102461.25;2615291;36;20452;-60
2022/07/11 08:36:45;;;;;;;0.60;0.53;;;;;;;19.00;100.00;102461.94;2614383;36;20291;-61
2022/07/11 08:39:13;;;;;;;4.10;0.75;;;;;;;18.82;100.00;102456.41;2614617;36;20852;-61
2022/07/11 08:41:47;;;;;;;0.87;0.63;;;;;;;18.37;100.00;102463.50;2614264;36;20098;-60
2022/07/11 08:44:16;;;;;;;1.05;0.57;;;;;;;18.27;100.00;102461.78;2615126;36;20295;-61
2022/07/11 08:46:45;;;;;;;1.40;0.80;;;;;;;18.35;100.00;102459.19;2608752;36;20067;-61
2022/07/11 08:49:14;;;;;;;1.48;0.80;;;;;;;18.13;100.00;102461.25;2614969;31;20623;-62
2022/07/11 08:51:46;;;;;;;1.48;0.80;;;;;;;18.37;100.00;102451.72;2614895;36;20038;-60
2022/07/11 08:54:14;;;;;;;3.03;0.70;;;;;;;18.51;100.00;102458.56;2608795;36;20042;-64
2022/07/11 08:56:46;;;;;;;0.55;0.50;;;;;;;18.70;100.00;102455.75;2615117;36;20085;-62
2022/07/11 08:59:18;;;;;;;0.50;0.50;;;;;;;18.89;100.00;102448.53;2615734;31;20528;-60
2022/07/11 09:01:48;;;;;;;0.95;0.68;;;;;;;19.11;100.00;102455.41;2612196;36;20801;-60
2022/07/11 09:04:21;;;;;;;0.50;0.50;;;;;;;19.25;100.00;102451.28;2615118;36;20405;-60
2022/07/11 09:06:52;;;;;;;0.77;0.65;;;;;;;19.05;100.00;102448.69;2614195;36;20078;-61
2022/07/11 09:09:21;;;;;;;0.95;0.80;;;;;;;19.29;100.00;102449.09;2614378;36;20061;-62
2022/07/11 09:11:54;;;;;;;1.33;0.70;;;;;;;19.04;100.00;102454.31;2614832;36;20037;-60
2022/07/11 09:14:26;;;;;;;1.52;0.70;;;;;;;19.29;100.00;102446.38;2613901;36;20543;-61
2022/07/11 09:16:57;;;;;;;0.65;0.65;;;;;;;18.64;100.00;102464.53;2614548;36;20089;-61
2022/07/11 09:19:37;;;;;;;1.75;0.65;;;;;;;18.69;100.00;102458.63;2614194;36;20158;-63
2022/07/11 09:27:44;;;;;;;0.50;0.50;;;;;;;19.59;100.00;102459.63;2613957;36;20070;-58
2022/07/11 09:30:24;;;;;;;0.52;0.47;;;;;;;19.55;100.00;102457.38;2615252;36;20448;-59
2022/07/11 09:32:58;;;;;;;1.02;0.60;;;;;;;19.61;100.00;102451.31;2614177;36;20038;-58
2022/07/11 09:35:28;;;;;;;0.35;0.35;;;;;;;19.52;100.00;102441.31;2615487;36;20407;-59
2022/07/11 09:37:59;;;;;;;0.43;0.38;;;;;;;19.44;100.00;102439.38;2614540;36;20038;-62
2022/07/11 09:40:28;;;;;;;0.40;0.40;;;;;;;19.73;100.00;102455.50;2614523;36;20038;-59
2022/07/11 09:42:58;;;;;;;0.30;0.30;;;;;;;20.16;100.00;102441.16;2614393;36;20640;-63
2022/07/11 09:45:30;;;;;;;0.60;0.55;;;;;;;20.13;100.00;102450.53;2614527;36;20065;-62
2022/07/11 09:48:00;;;;;;;0.80;0.60;;;;;;;20.35;100.00;102454.59;2614375;36;20069;-60
2022/07/11 09:50:31;;;;;;;1.33;0.70;;;;;;;20.24;100.00;102442.09;2614020;36;20065;-62
2022/07/11 09:53:09;;;;;;;0.70;0.70;;;;;;;20.63;100.00;102444.31;2614289;36;20054;-60
2022/07/11 09:55:39;;;;;;;1.85;0.70;;;;;;;20.99;100.00;102433.22;2606713;36;20057;-58
2022/07/11 09:58:07;;;;;;;0.47;0.40;;;;;;;20.31;100.00;102434.91;2612709;36;20042;-66
2022/07/11 10:00:36;;;;;;;0.70;0.57;;;;;;;20.14;100.00;102441.34;2614115;36;20034;-60
2022/07/11 10:03:06;;;;;;;0.40;0.40;;;;;;;20.66;100.00;102434.97;2607871;36;20045;-66
2022/07/11 10:05:35;;;;;;;6.40;0.95;;;;;;;20.93;100.00;102435.75;2614601;36;20042;-61
2022/07/11 10:08:04;;;;;;;0.60;0.60;;;;;;;20.80;100.00;102441.69;2613799;31;20087;-62
2022/07/11 10:10:36;;;;;;;0.80;0.60;;;;;;;20.61;100.00;102432.69;2614209;36;20031;-59
2022/07/11 10:13:05;;;;;;;1.17;0.70;;;;;;;20.69;100.00;102431.06;2613917;36;20034;-58
2022/07/11 10:15:36;;;;;;;1.23;0.70;;;;;;;20.99;100.00;102433.22;2614801;36;20923;-63
2022/07/11 10:18:12;;;;;;;1.20;0.52;;;;;;;21.34;100.00;102425.72;2613446;36;20038;-64
2022/07/11 10:20:47;;;;;;;0.93;0.73;;;;;;;20.55;100.00;102433.31;2614236;36;20451;-63
2022/07/11 10:23:24;;;;;;;1.20;0.90;;;;;;;20.81;100.00;102430.56;2614498;36;20039;-63
2022/07/11 10:26:04;;;;;;;0.80;0.60;;;;;;;20.62;100.00;102434.38;2613515;36;20038;-59
2022/07/11 10:28:39;;;;;;;0.60;0.60;;;;;;;20.15;100.00;102442.19;2613792;31;20563;-59
2022/07/11 10:31:21;;;;;;;1.25;0.70;;;;;;;19.75;100.00;102455.34;2613708;36;20068;-59
2022/07/11 10:34:03;;;;;;;1.00;0.90;;;;;;;19.98;100.00;102452.13;2614909;36;20034;-60
2022/07/11 10:36:34;;;;;;;1.20;0.80;;;;;;;19.91;100.00;102452.78;2615234;31;20030;-62
2022/07/11 10:39:27;;;;;;;1.27;0.88;;;;;;;19.48;100.00;102450.81;2615409;36;20447;-63
2022/07/11 10:41:59;;;;;;;1.08;0.90;;;;;;;19.76;100.00;102460.66;2614087;36;20030;-62
2022/07/11 10:44:29;;;;;;;0.85;0.80;;;;;;;20.00;100.00;102448.22;2613923;36;20041;-60
2022/07/11 10:46:58;;;;;;;1.45;1.00;;;;;;;20.69;100.00;102456.53;2615326;36;20054;-61
2022/07/11 10:49:39;;;;;;;1.38;0.70;;;;;;;20.86;100.00;102442.91;2614725;31;20564;-59
2022/07/11 10:52:09;;;;;;;0.50;0.50;;;;;;;20.81;100.00;102440.66;2614327;36;20053;-59
2022/07/11 10:54:55;;;;;;;0.57;0.57;;;;;;;21.04;100.00;102440.91;2614794;36;20037;-62
2022/07/11 10:57:34;;;;;;;0.60;0.52;;;;;;;21.12;100.00;102438.19;2614489;36;20547;-58
2022/07/11 11:00:05;;;;;;;0.50;0.50;;;;;;;20.78;100.00;102446.47;2614862;36;20548;-65
2022/07/11 11:02:54;;;;;;;1.10;0.80;;;;;;;20.71;100.00;102449.00;2607567;36;20034;-58
2022/07/11 11:05:47;;;;;;;0.50;0.50;;;;;;;20.76;100.00;102440.28;2615555;31;20043;-58
2022/07/11 11:08:43;;;;;;;1.05;0.68;;;;;;;20.52;100.00;102444.59;2615838;31;20042;-62
2022/07/11 11:11:40;;;;;;;1.00;0.50;;;;;;;20.44;100.00;102450.03;2614346;36;20561;-58
2022/07/11 11:14:30;;;;;;;0.70;0.52;;;;;;;20.17;100.00;102457.41;2614218;36;20165;-58
2022/07/11 11:17:35;;;;;;;0.50;0.50;;;;;;;20.02;100.00;102459.00;2614713;36;20536;-62
2022/07/11 11:20:04;;;;;;;0.45;0.40;;;;;;;20.10;100.00;102467.28;2614461;36;20033;-62
2022/07/11 11:22:33;;;;;;;0.40;0.40;;;;;;;20.24;100.00;102463.06;2614527;31;20034;-61
2022/07/11 11:25:02;;;;;;;1.45;0.50;;;;;;;20.82;100.00;102461.53;2614012;36;20051;-58
2022/07/11 11:27:31;;;;;;;0.60;0.50;;;;;;;21.06;100.00;102457.19;2614596;36;20864;-63
2022/07/11 11:30:02;;;;;;;0.57;0.45;;;;;;;20.61;100.00;102460.06;2614486;36;20071;-59
2022/07/11 11:32:34;;;;;;;0.35;0.35;;;;;;;20.87;100.00;102459.16;2614774;36;20034;-59
2022/07/11 11:35:03;;;;;;;0.75;0.50;;;;;;;20.36;100.00;102461.81;2615842;36;20031;-61
2022/07/11 11:37:32;;;;;;;0.82;0.40;;;;;;;20.91;100.00;102455.06;2614784;36;20034;-59